Time;durP1;ratioP1;P1;durP2;ratioP2;P2;SDS_P1;SDS_P2;PMS_P1;PMS_P2;Temp;Humidity;BMP_temperature;BMP_pressure;BME280_temperature;BME280_humidity;BME280_pressure;Samples;Min_cycle;Max_cycle;Signal;HPM_P1;HPM_P2
2021/07/11 00:00:14;;;;;;;;;;;;;;;-148.22;100.00;58358.63;4975937;28;1460;-85
2021/07/11 00:02:41;;;;;;;;;;;;;;;-148.22;100.00;58358.63;4973794;28;1086;-84
2021/07/11 00:05:08;;;;;;;;;;;;;;;-148.22;100.00;58358.63;4959739;28;1369;-84
2021/07/11 00:10:16;;;;;;;;;;;;;;;;;;5093845;27;1304;-85
2021/07/11 00:12:41;;;;;;;;;;;;;;;;;;5092400;28;1201;-85
2021/07/11 00:15:14;;;;;;;;;;;;;;;;;;5092259;28;1548;-85
2021/07/11 00:17:42;;;;;;;;;;;;;;;;;;5092201;28;1326;-85
2021/07/11 00:20:13;;;;;;;;;;;;;;;;;;5092122;28;1175;-85
2021/07/11 00:22:48;;;;;;;;;;;;;;;;;;5093335;28;920;-85
2021/07/11 00:25:21;;;;;;;;;;;;;;;;;;5092007;28;1193;-85
2021/07/11 00:27:48;;;;;;;;;;;;;;;;;;5093400;28;1906;-86
2021/07/11 00:30:20;;;;;;;;;;;;;;;;;;5091906;28;1146;-86
2021/07/11 00:32:46;;;;;;;;;;;;;;;;;;5090326;28;1207;-85
2021/07/11 00:35:14;;;;;;;;;;;;;;;;;;5092290;28;925;-85
2021/07/11 00:37:49;;;;;;;;;;;;;;;;;;5091127;28;1206;-85
2021/07/11 00:40:14;;;;;;;;;;;;;;;;;;5091743;28;1266;-85
2021/07/11 00:42:50;;;;;;;;;;;;;;;;;;5091769;28;1186;-85
2021/07/11 00:45:17;;;;;;;;;;;;;;;;;;5091662;28;1214;-85
2021/07/11 00:48:00;;;;;;;;;;;;;;;;;;5091506;28;1301;-86
2021/07/11 00:50:41;;;;;;;;;;;;;;;;;;5092817;28;889;-85
2021/07/11 00:53:08;;;;;;;;;;;;;;;;;;5091502;28;1359;-84
2021/07/11 00:58:27;;;;;;;;;;;;;;;;;;5050506;28;1014;-85
2021/07/11 01:00:55;;;;;;;;;;;;;;;;;;5050545;28;1195;-84
2021/07/11 01:03:22;;;;;;;;;;;;;;;;;;5050391;28;1084;-84
2021/07/11 01:05:48;;;;;;;;;;;;;;;;;;5050297;28;1180;-84
2021/07/11 01:08:19;;;;;;;;;;;;;;;;;;5046323;28;1886;-84
2021/07/11 01:10:44;;;;;;;;;;;;;;;;;;5030140;28;1220;-85
2021/07/11 01:13:11;;;;;;;;;;;;;;;;;;5029706;28;1226;-86
2021/07/11 01:15:38;;;;;;;;;;;;;;;;;;5030222;28;1301;-85
2021/07/11 01:18:13;;;;;;;;;;;;;;;;;;5030252;28;910;-86
2021/07/11 01:23:20;;;;;;;;;;;;;;;;;;5016852;28;1237;-86
2021/07/11 01:26:00;;;;;;;;;;;;;;;;;;5016704;28;1290;-86
2021/07/11 01:28:26;;;;;;;;;;;;;;;;;;5016003;28;1978;-85
2021/07/11 01:30:52;;;;;;;;;;;;;;;;;;5016864;28;922;-86
2021/07/11 01:33:17;;;;;;;;;;;;;;;;;;5015563;28;1207;-85
2021/07/11 01:35:54;;;;;;;;;;;;;;;;;;5045978;28;1163;-86
2021/07/11 01:38:20;;;;;;;;;;;;;;;;;;5057010;28;963;-86
2021/07/11 01:40:52;;;;;;;;;;;;;;;;;;5054662;28;1368;-85
2021/07/11 01:43:27;;;;;;;;;;;;;;;;;;5056223;28;1239;-84
2021/07/11 01:48:29;;;;;;;;;;;;;;;;;;5057403;28;1953;-85
2021/07/11 01:50:56;;;;;;;;;;;;;;;;;;5056354;28;1418;-85
2021/07/11 01:56:15;;;;;;;;;;;;;;;;;;5035390;28;1159;-84
2021/07/11 01:58:50;;;;;;;;;;;;;;;;;;5036024;28;996;-85
2021/07/11 02:01:15;;;;;;;;;;;;;;;;;;5016093;28;1290;-85
2021/07/11 02:03:41;;;;;;;;;;;;;;;;;;5016122;28;906;-85
2021/07/11 02:06:16;;;;;;;;;;;;;;;;;;5016032;28;955;-85
2021/07/11 02:08:50;;;;;;;;;;;;;;;;;;4998961;28;1878;-84
2021/07/11 02:11:15;;;;;;;;;;;;;;;;;;4999677;28;1304;-84
2021/07/11 02:13:40;;;;;;;;;;;;;;;;;;5015997;28;924;-84
2021/07/11 02:16:15;;;;;;;;;;;;;;;;;;4999795;28;1374;-85
2021/07/11 02:18:49;;;;;;;;;;;;;;;;;;4999612;28;1222;-85
2021/07/11 02:21:15;;;;;;;;;;;;;;;;;;5016078;28;1061;-85
2021/07/11 02:23:42;;;;;;;;;;;;;;;;;;4998206;28;1471;-84
2021/07/11 02:28:50;;;;;;;;;;;;;;;;;;5015725;28;1979;-84
2021/07/11 02:31:27;;;;;;;;;;;;;;;;;;4998825;28;1460;-84
2021/07/11 02:36:36;;;;;;;;;;;;;;;;;;5057201;28;633;-85
2021/07/11 02:39:01;;;;;;;;;;;;;;;;;;5055882;28;1175;-84
2021/07/11 02:41:40;;;;;;;;;;;;;;;;;;5055885;28;1333;-85
2021/07/11 02:44:16;;;;;;;;;;;;;;;;;;5055944;28;1372;-86
2021/07/11 02:49:37;;;;;;;;;;;;;;;;;;5015356;28;1866;-85
2021/07/11 02:52:04;;;;;;;;;;;;;;;;;;5015208;28;1309;-85
2021/07/11 02:54:36;;;;;;;;;;;;;;;;;;5015208;28;1376;-85
2021/07/11 02:57:03;;;;;;;;;;;;;;;;;;5015120;28;1387;-85
2021/07/11 02:59:30;;;;;;;;;;;;;;;;;;5015065;28;1214;-85
2021/07/11 03:01:56;;;;;;;;;;;;;;;;;;5015063;28;1083;-84
2021/07/11 03:04:22;;;;;;;;;;;;;;;;;;5015038;28;1282;-84
2021/07/11 03:06:56;;;;;;;;;;;;;;;;;;5014875;28;1319;-84
2021/07/11 03:12:12;;;;;;;;;;;;;;;;;;4918834;29;1012;-85
2021/07/11 03:14:39;;;;;;;;;;;;;;;;;;4917691;29;1310;-85
2021/07/11 03:17:06;;;;;;;;;;;;;;;;;;4914181;29;1346;-84
2021/07/11 03:19:32;;;;;;;;;;;;;;;;;;4915085;29;1235;-85
2021/07/11 03:22:08;;;;;;;;;;;;;;;;;;4899372;29;923;-85
2021/07/11 03:24:35;;;;;;;;;;;;;;;;;;4899301;29;926;-85
2021/07/11 03:27:02;;;;;;;;;;;;;;;;;;4935847;29;1277;-85
2021/07/11 03:29:29;;;;;;;;;;;;;;;;;;4921080;29;1899;-84
2021/07/11 03:31:56;;;;;;;;;;;;;;;;;;4921754;29;1482;-84
2021/07/11 03:34:33;;;;;;;;;;;;;;;;;;4921223;29;1414;-84
2021/07/11 03:37:00;;;;;;;;;;;;;;;;;;4930683;29;1324;-85
2021/07/11 03:42:28;;;;;;;;;;;;;;;;;;4956013;29;924;-85
2021/07/11 03:45:02;;;;;;;;;;;;;;;;;;4939703;29;1500;-84
2021/07/11 03:47:29;;;;;;;;;;;;;;;;;;4956172;29;894;-84
2021/07/11 03:50:00;;;;;;;;;;;;;;;;;;5023092;28;1956;-85
2021/07/11 03:52:35;;;;;;;;;;;;;;;;;;5068211;28;1371;-85
2021/07/11 03:55:10;;;;;;;;;;;;;;;;;;5068314;28;1304;-85
2021/07/11 03:57:43;;;;;;;;;;;;;;;;;;5068724;28;1415;-85
2021/07/11 04:00:18;;;;;;;;;;;;;;;;;;5068207;28;1315;-86
2021/07/11 04:02:59;;;;;;;;;;;;;;;;;;5068155;28;1271;-86
2021/07/11 04:11:24;;;;;;;;;;;;;;;;;;4988610;28;1344;-85
2021/07/11 04:13:51;;;;;;;;;;;;;;;;;;4994374;28;1303;-84
2021/07/11 04:16:18;;;;;;;;;;;;;;;;;;4994351;28;1200;-85
2021/07/11 04:18:45;;;;;;;;;;;;;;;;;;4994402;28;1176;-85
2021/07/11 04:21:11;;;;;;;;;;;;;;;;;;4994394;28;1370;-85
2021/07/11 04:26:47;;;;;;;;;;;;;;;;;;4955626;29;1064;-84
2021/07/11 04:29:33;;;;;;;;;;;;;;;;;;4954964;29;1974;-85
2021/07/11 04:32:00;;;;;;;;;;;;;;;;;;4954806;29;1312;-84
2021/07/11 04:37:35;;;;;;;;;;;;;;;;;;4917449;29;1117;-85
2021/07/11 04:40:02;;;;;;;;;;;;;;;;;;4932937;29;1267;-84
2021/07/11 04:42:29;;;;;;;;;;;;;;;;;;4936105;29;1265;-84
2021/07/11 04:45:04;;;;;;;;;;;;;;;;;;4936527;29;1281;-84
2021/07/11 04:47:31;;;;;;;;;;;;;;;;;;4936183;29;1296;-85
2021/07/11 04:50:09;;;;;;;;;;;;;;;;;;4936012;29;1883;-85
2021/07/11 04:52:37;;;;;;;;;;;;;;;;;;4936060;29;1440;-84
2021/07/11 04:55:11;;;;;;;;;;;;;;;;;;4936817;29;870;-84
2021/07/11 04:57:46;;;;;;;;;;;;;;;;;;4939818;29;1263;-84
2021/07/11 05:00:12;;;;;;;;;;;;;;;;;;4939971;29;910;-85
2021/07/11 05:02:38;;;;;;;;;;;;;;;;;;4961130;28;1258;-84
2021/07/11 05:05:03;;;;;;;;;;;;;;;;;;4980669;28;1338;-84
2021/07/11 05:07:29;;;;;;;;;;;;;;;;;;4997619;28;899;-85
2021/07/11 05:10:00;;;;;;;;;;;;;;;;;;4980664;28;1949;-83
2021/07/11 05:12:25;;;;;;;;;;;;;;;;;;5048586;28;1240;-85
2021/07/11 05:14:50;;;;;;;;;;;;;;;;;;5037752;28;1219;-84
2021/07/11 05:17:28;;;;;;;;;;;;;;;;;;5037667;28;1278;-85
2021/07/11 05:19:54;;;;;;;;;;;;;;;;;;5038894;28;974;-85
2021/07/11 05:22:28;;;;;;;;;;;;;;;;;;5037415;28;1132;-83
2021/07/11 05:24:53;;;;;;;;;;;;;;;;;;5037488;28;1222;-83
2021/07/11 05:27:18;;;;;;;;;;;;;;;;;;5037334;28;1254;-84
2021/07/11 05:29:49;;;;;;;;;;;;;;;;;;5037210;28;1977;-84
2021/07/11 05:32:15;;;;;;;;;;;;;;;;;;5037174;28;1191;-84
2021/07/11 05:37:38;;;;;;;;;;;;;;;;;;4977648;28;1026;-83
2021/07/11 05:40:15;;;;;;;;;;;;;;;;;;4976738;28;1190;-83
2021/07/11 05:42:42;;;;;;;;;;;;;;;;;;4977490;28;1230;-84
2021/07/11 05:45:19;;;;;;;;;;;;;;;;;;4977544;28;1235;-84
2021/07/11 05:47:47;;;;;;;;;;;;;;;;;;4977205;28;1100;-84
2021/07/11 05:50:21;;;;;;;;;;;;;;;;;;4977275;28;1936;-83
2021/07/11 05:52:47;;;;;;;;;;;;;;;;;;4977335;28;1438;-83
2021/07/11 05:55:23;;;;;;;;;;;;;;;;;;4977347;28;1274;-84
2021/07/11 05:57:56;;;;;;;;;;;;;;;;;;4977179;28;1503;-84
2021/07/11 06:00:23;;;;;;;;;;;;;;;;;;4976545;28;1304;-84
2021/07/11 06:02:50;;;;;;;;;;;;;;;;;;4977292;28;931;-84
2021/07/11 06:05:16;;;;;;;;;;;;;;;;;;4976982;28;1293;-83
2021/07/11 06:07:41;;;;;;;;;;;;;;;;;;4976493;28;1246;-86
2021/07/11 06:10:08;;;;;;;;;;;;;;;;;;4977797;28;1899;-84
2021/07/11 06:12:33;;;;;;;;;;;;;;;;;;4960702;28;1229;-84
2021/07/11 06:14:58;;;;;;;;;;;;;;;;;;5031169;28;1310;-84
2021/07/11 06:20:25;;;;;;;;;;;;;;;;;;5015804;28;1411;-83
2021/07/11 06:22:51;;;;;;;;;;;;;;;;;;5015872;28;1208;-83
2021/07/11 06:25:18;;;;;;;;;;;;;;;;;;5015512;28;1371;-84
2021/07/11 06:27:45;;;;;;;;;;;;;;;;;;5015441;28;1215;-82
2021/07/11 06:30:25;;;;;;;;;;;;;;;;;;5015165;28;1898;-84
2021/07/11 06:32:51;;;;;;;;;;;;;;;;;;5014891;28;1399;-83
2021/07/11 06:35:18;;;;;;;;;;;;;;;;;;5015456;28;1392;-83
2021/07/11 06:37:52;;;;;;;;;;;;;;;;;;5015501;28;1248;-84
2021/07/11 06:40:17;;;;;;;;;;;;;;;;;;5015389;28;1222;-83
2021/07/11 06:42:44;;;;;;;;;;;;;;;;;;5015601;28;1326;-84
2021/07/11 06:45:12;;;;;;;;;;;;;;;;;;5015196;28;1256;-84
2021/07/11 06:47:38;;;;;;;;;;;;;;;;;;5015120;28;1156;-84
2021/07/11 06:50:03;;;;;;;;;;;;;;;;;;5015053;28;1883;-83
2021/07/11 06:52:29;;;;;;;;;;;;;;;;;;5015420;28;1325;-84
2021/07/11 06:54:55;;;;;;;;;;;;;;;;;;5015190;28;1287;-84
2021/07/11 07:00:24;;;;;;;;;;;;;;;;;;4995354;28;780;-83
2021/07/11 07:02:51;;;;;;;;;;;;;;;;;;4995284;28;1060;-83
2021/07/11 07:05:19;;;;;;;;;;;;;;;;;;4979001;28;1236;-82
2021/07/11 07:07:46;;;;;;;;;;;;;;;;;;4978892;28;1204;-82
2021/07/11 07:10:22;;;;;;;;;;;;;;;;;;4979327;28;1882;-83
2021/07/11 07:12:47;;;;;;;;;;;;;;;;;;4998540;28;1358;-85
2021/07/11 07:15:13;;;;;;;;;;;;;;;;;;4998593;28;1294;-84
2021/07/11 07:17:47;;;;;;;;;;;;;;;;;;4997977;28;1169;-83
2021/07/11 07:20:14;;;;;;;;;;;;;;;;;;4998258;28;1027;-83
2021/07/11 07:22:40;;;;;;;;;;;;;;;;;;4998097;28;1221;-84
2021/07/11 07:25:06;;;;;;;;;;;;;;;;;;4998308;28;1266;-84
2021/07/11 07:27:32;;;;;;;;;;;;;;;;;;4998180;28;1160;-85
2021/07/11 07:30:07;;;;;;;;;;;;;;;;;;5014770;28;1902;-84
2021/07/11 07:32:33;;;;;;;;;;;;;;;;;;4998159;28;1311;-84
2021/07/11 07:41:04;;;;;;;;;;;;;;;;;;4937060;29;1079;-84
2021/07/11 07:43:31;;;;;;;;;;;;;;;;;;4936968;29;1340;-84
2021/07/11 07:45:58;;;;;;;;;;;;;;;;;;4936700;29;1308;-84
2021/07/11 07:48:25;;;;;;;;;;;;;;;;;;4936512;29;1934;-83
2021/07/11 07:50:51;;;;;;;;;;;;;;;;;;4936792;29;1024;-83
2021/07/11 07:53:17;;;;;;;;;;;;;;;;;;4936712;29;966;-84
2021/07/11 07:55:43;;;;;;;;;;;;;;;;;;4936690;29;1029;-85
2021/07/11 07:58:18;;;;;;;;;;;;;;;;;;4936537;29;1311;-84
2021/07/11 08:01:03;;;;;;;;;;;;;;;;;;4936065;29;1316;-89
2021/07/11 08:03:37;;;;;;;;;;;;;;;;;;4936427;29;1293;-89
2021/07/11 08:08:46;;;;;;;;;;;;;;;;;;4936489;29;2136;-87
2021/07/11 08:11:11;;;;;;;;;;;;;;;;;;4951494;28;1254;-89
2021/07/11 08:13:36;;;;;;;;;;;;;;;;;;4938153;28;1341;-88
2021/07/11 08:16:14;;;;;;;;;;;;;;;;;;4994526;28;1238;-88
2021/07/11 08:19:00;;;;;;;;;;;;;;;;;;5054542;28;1200;-89
2021/07/11 08:24:09;;;;;;;;;;;;;;;;;;5055740;28;588;-89
2021/07/11 08:29:17;;;;;;;;;;;;;;;;;;5055564;28;1969;-89
2021/07/11 08:31:53;;;;;;;;;;;;;;;;;;5056318;28;1317;-89
2021/07/11 08:37:03;;;;;;;;;;;;;;;;;;5059868;28;585;-89
2021/07/11 08:42:12;;;;;;;;;;;;;;;;;;5059638;28;609;-88
2021/07/11 08:52:37;;;;;;;;;;;;;;;;;;5059249;28;621;-89
2021/07/11 08:57:46;;;;;;;;;;;;;;;;;;5059227;28;672;-89
2021/07/11 09:00:19;;;;;;;;;;;;;;;;;;5058049;28;1159;-88
2021/07/11 09:02:45;;;;;;;;;;;;;;;;;;5058541;28;956;-89
2021/07/11 09:10:56;;;;;;;;;;;;;;;;;;5036188;28;1219;-89
2021/07/11 09:13:21;;;;;;;;;;;;;;;;;;5020088;28;1434;-89
2021/07/11 09:15:47;;;;;;;;;;;;;;;;;;5020560;28;1276;-88
2021/07/11 09:23:39;;;;;;;;;;;;;;;;;;5036987;28;980;-88
2021/07/11 09:26:19;;;;;;;;;;;;;;;;;;5020418;28;1164;-88
2021/07/11 09:28:45;;;;;;;;;;;;;;;;;;5019115;28;1902;-88
2021/07/11 09:33:55;;;;;;;;;;;;;;;;;;5036433;28;920;-89
2021/07/11 09:39:04;;;;;;;;;;;;;;;;;;5036731;28;697;-88
2021/07/11 09:47:18;;;;;;;;;;;;;;;;;;5058381;28;645;-88
2021/07/11 09:55:11;;;;;;;;;;;;;;;;;;5058384;28;598;-88
2021/07/11 09:57:49;;;;;;;;;;;;;;;;;;5057098;28;1277;-89
2021/07/11 10:00:16;;;;;;;;;;;;;;;;;;5056683;28;1278;-89
2021/07/11 10:05:25;;;;;;;;;;;;;;;;;;5058138;28;625;-89
2021/07/11 10:07:50;;;;;;;;;;;;;;;;;;5056832;28;1298;-88
2021/07/11 10:12:59;;;;;;;;;;;;;;;;;;5073550;28;1181;-88
2021/07/11 10:20:52;;;;;;;;;;;;;;;;;;5077789;28;652;-89
2021/07/11 10:26:03;;;;;;;;;;;;;;;;;;5076357;28;1235;-88
2021/07/11 10:31:12;;;;;;;;;;;;;;;;;;5077619;28;637;-88
2021/07/11 10:33:51;;;;;;;;;;;;;;;;;;5059472;28;1371;-89
2021/07/11 10:39:00;;;;;;;;;;;;;;;;;;5076879;28;875;-88
2021/07/11 10:44:09;;;;;;;;;;;;;;;;;;5076678;28;883;-88
2021/07/11 10:49:18;;;;;;;;;;;;;;;;;;5077073;28;1898;-89
2021/07/11 10:54:34;;;;;;;;;;;;;;;;;;5076267;28;668;-88
2021/07/11 10:59:43;;;;;;;;;;;;;;;;;;5077194;28;577;-88
2021/07/11 11:08:01;;;;;;;;;;;;;;;;;;4995599;28;1224;-89
2021/07/11 11:13:10;;;;;;;;;;;;;;;;;;4995625;28;1182;-89
2021/07/11 11:18:19;;;;;;;;;;;;;;;;;;4995467;28;1262;-89
2021/07/11 11:26:11;;;;;;;;;;;;;;;;;;4995520;28;640;-89
2021/07/11 11:28:47;;;;;;;;;;;;;;;;;;4995136;28;1968;-90
2021/07/11 11:33:56;;;;;;;;;;;;;;;;;;4995402;28;594;-90
2021/07/11 11:36:22;;;;;;;;;;;;;;;;;;4995035;28;1213;-89
2021/07/11 11:41:49;;;;;;;;;;;;;;;;;;4994535;28;917;-88
2021/07/11 11:52:25;;;;;;;;;;;;;;;;;;5075670;28;868;-88
2021/07/11 11:54:50;;;;;;;;;;;;;;;;;;5057014;28;1324;-88
2021/07/11 11:57:24;;;;;;;;;;;;;;;;;;5058408;28;1280;-88
2021/07/11 11:59:58;;;;;;;;;;;;;;;;;;5074576;28;1006;-88
2021/07/11 12:13:58;;;;;;;;;;;;;;;;;;5036095;28;598;-89
2021/07/11 12:16:23;;;;;;;;;;;;;;;;;;5034774;28;1312;-89
2021/07/11 12:27:02;;;;;;;;;;;;;;;;;;5035905;28;570;-87
2021/07/11 12:29:48;;;;;;;;;;;;;;;;;;5034529;28;1985;-89
2021/07/11 12:38:00;;;;;;;;;;;;;;;;;;5014057;28;899;-89
2021/07/11 12:43:09;;;;;;;;;;;;;;;;;;5013849;28;966;-88
2021/07/11 12:53:45;;;;;;;;;;;;;;;;;;5014116;28;593;-89
2021/07/11 13:01:47;;;;;;;;;;;;;;;;;;5014064;28;1102;-90
2021/07/11 13:04:32;;;;;;;;;;;;;;;;;;4997439;28;1286;-89
2021/07/11 13:09:40;;;;;;;;;;;;;;;;;;5028295;28;1949;-89
2021/07/11 13:12:05;;;;;;;;;;;;;;;;;;5040865;28;1389;-89
2021/07/11 13:14:31;;;;;;;;;;;;;;;;;;5054088;28;1329;-88
2021/07/11 13:16:58;;;;;;;;;;;;;;;;;;5055823;28;1406;-88
2021/07/11 13:27:34;;;;;;;;;;;;;;;;;;5058834;28;577;-88
2021/07/11 13:32:44;;;;;;;;;;;;;;;;;;5058829;28;620;-88
2021/07/11 13:38:04;;;;;;;;;;;;;;;;;;5058516;28;641;-88
2021/07/11 13:46:04;;;;;;;;;;;;;;;;;;5058435;28;589;-89
2021/07/11 13:48:32;;;;;;;;;;;;;;;;;;5057067;28;1936;-89
2021/07/11 13:53:41;;;;;;;;;;;;;;;;;;5058428;28;589;-88
2021/07/11 13:58:50;;;;;;;;;;;;;;;;;;5058214;28;569;-89
2021/07/11 14:04:01;;;;;;;;;;;;;;;;;;5058063;28;1230;-90
2021/07/11 14:06:35;;;;;;;;;;;;;;;;;;5057018;28;1365;-89
2021/07/11 14:14:14;;;;;;;;;;;;;;;;;;5077271;28;1204;-89
2021/07/11 14:16:54;;;;;;;;;;;;;;;;;;5059943;28;1167;-89
2021/07/11 14:22:03;;;;;;;;;;;;;;;;;;5077849;28;629;-90
2021/07/11 14:27:15;;;;;;;;;;;;;;;;;;5077774;28;609;-88
2021/07/11 14:37:53;;;;;;;;;;;;;;;;;;5077571;28;669;-89
2021/07/11 14:43:02;;;;;;;;;;;;;;;;;;5076848;28;871;-88
2021/07/11 14:45:29;;;;;;;;;;;;;;;;;;5059473;28;1305;-88
2021/07/11 14:50:57;;;;;;;;;;;;;;;;;;5077084;28;1890;-90
2021/07/11 14:56:07;;;;;;;;;;;;;;;;;;5077208;28;589;-89
2021/07/11 15:04:16;;;;;;;;;;;;;;;;;;5076865;28;1191;-89
2021/07/11 15:06:55;;;;;;;;;;;;;;;;;;5077281;28;866;-89
2021/07/11 15:12:18;;;;;;;;;;;;;;;;;;5073929;28;1112;-89
2021/07/11 15:14:43;;;;;;;;;;;;;;;;;;5054547;28;1196;-88
2021/07/11 15:17:29;;;;;;;;;;;;;;;;;;5055522;28;1195;-88
2021/07/11 15:22:38;;;;;;;;;;;;;;;;;;5056500;28;649;-89
2021/07/11 15:25:21;;;;;;;;;;;;;;;;;;5055360;28;1248;-89
2021/07/11 15:27:56;;;;;;;;;;;;;;;;;;5055425;28;1187;-89
2021/07/11 15:41:18;;;;;;;;;;;;;;;;;;5056412;28;597;-89
2021/07/11 15:43:44;;;;;;;;;;;;;;;;;;5054368;28;1270;-89
2021/07/11 15:46:31;;;;;;;;;;;;;;;;;;5054913;28;1287;-89
2021/07/11 15:49:17;;;;;;;;;;;;;;;;;;5035206;28;1949;-89
2021/07/11 15:51:54;;;;;;;;;;;;;;;;;;5035711;28;1227;-89
2021/07/11 15:57:04;;;;;;;;;;;;;;;;;;5055590;28;912;-89
2021/07/11 16:02:14;;;;;;;;;;;;;;;;;;5055916;28;1252;-85
2021/07/11 16:04:39;;;;;;;;;;;;;;;;;;5054761;28;1262;-85
2021/07/11 16:07:16;;;;;;;;;;;;;;;;;;5055857;28;908;-84
2021/07/11 16:09:48;;;;;;;;;;;;;;;;;;5054584;28;1890;-85
2021/07/11 16:12:14;;;;;;;;;;;;;;;;;;5055912;28;802;-85
2021/07/11 16:14:39;;;;;;;;;;;;;;;;;;5054539;28;1333;-85
2021/07/11 16:17:04;;;;;;;;;;;;;;;;;;5054466;28;1366;-85
2021/07/11 16:19:32;;;;;;;;;;;;;;;;;;5055744;28;984;-85
2021/07/11 16:21:58;;;;;;;;;;;;;;;;;;5053689;28;1198;-85
2021/07/11 16:24:33;;;;;;;;;;;;;;;;;;5054024;28;1174;-85
2021/07/11 16:27:10;;;;;;;;;;;;;;;;;;5055838;28;819;-84
2021/07/11 16:29:36;;;;;;;;;;;;;;;;;;5055677;28;1980;-85
2021/07/11 16:32:09;;;;;;;;;;;;;;;;;;5054446;28;1212;-85
2021/07/11 16:34:41;;;;;;;;;;;;;;;;;;5054353;28;1296;-84
2021/07/11 16:37:23;;;;;;;;;;;;;;;;;;5055480;28;865;-84
2021/07/11 16:40:03;;;;;;;;;;;;;;;;;;5054378;28;1306;-84
2021/07/11 16:45:12;;;;;;;;;;;;;;;;;;5055554;28;589;-85
2021/07/11 16:47:49;;;;;;;;;;;;;;;;;;5055429;28;969;-85
2021/07/11 16:52:45;;;;;;;;;;;;;;;;;;5058939;28;885;-84
2021/07/11 16:55:21;;;;;;;;;;;;;;;;;;5058070;28;1338;-84
2021/07/11 16:57:57;;;;;;;;;;;;;;;;;;5057950;28;1397;-85
2021/07/11 17:00:23;;;;;;;;;;;;;;;;;;5059226;28;794;-84
2021/07/11 17:02:57;;;;;;;;;;;;;;;;;;5057938;28;1171;-84
2021/07/11 17:05:31;;;;;;;;;;;;;;;;;;5057924;28;1223;-83
2021/07/11 17:10:48;;;;;;;;;;;;;;;;;;5037174;28;1944;-85
2021/07/11 17:13:13;;;;;;;;;;;;;;;;;;5032665;28;1208;-85
2021/07/11 17:15:38;;;;;;;;;;;;;;;;;;5036790;28;1044;-85
2021/07/11 17:18:12;;;;;;;;;;;;;;;;;;5036926;28;913;-85
2021/07/11 17:20:37;;;;;;;;;;;;;;;;;;5036745;28;1302;-84
2021/07/11 17:23:13;;;;;;;;;;;;;;;;;;5036819;28;1160;-84
2021/07/11 17:25:39;;;;;;;;;;;;;;;;;;5036731;28;1356;-85
2021/07/11 17:28:06;;;;;;;;;;;;;;;;;;5037091;28;1313;-86
2021/07/11 17:30:33;;;;;;;;;;;;;;;;;;5036613;28;1906;-85
2021/07/11 17:33:14;;;;;;;;;;;;;;;;;;5035463;28;1211;-84
2021/07/11 17:35:41;;;;;;;;;;;;;;;;;;5035546;28;1180;-84
2021/07/11 17:38:17;;;;;;;;;;;;;;;;;;5036566;28;889;-85
2021/07/11 17:40:43;;;;;;;;;;;;;;;;;;5036444;28;1163;-85
2021/07/11 17:43:09;;;;;;;;;;;;;;;;;;5036406;28;1291;-85
2021/07/11 17:45:36;;;;;;;;;;;;;;;;;;5036287;28;1319;-85
2021/07/11 17:48:13;;;;;;;;;;;;;;;;;;5050730;28;1358;-85
2021/07/11 17:50:39;;;;;;;;;;;;;;;;;;5056917;28;1870;-84
2021/07/11 17:53:05;;;;;;;;;;;;;;;;;;5057037;28;1256;-84
2021/07/11 17:55:37;;;;;;;;;;;;;;;;;;5056993;28;1311;-85
2021/07/11 17:58:04;;;;;;;;;;;;;;;;;;5058220;28;854;-85
2021/07/11 18:00:38;;;;;;;;;;;;;;;;;;5056784;28;1342;-85
2021/07/11 18:03:13;;;;;;;;;;;;;;;;;;5057707;28;893;-85
2021/07/11 18:05:38;;;;;;;;;;;;;;;;;;5056720;28;1294;-84
2021/07/11 18:08:10;;;;;;;;;;;;;;;;;;5055812;28;1227;-85
2021/07/11 18:10:41;;;;;;;;;;;;;;;;;;5056329;28;1907;-85
2021/07/11 18:13:10;;;;;;;;;;;;;;;;;;5057407;28;1170;-85
2021/07/11 18:15:35;;;;;;;;;;;;;;;;;;5056717;28;1329;-84
2021/07/11 18:18:02;;;;;;;;;;;;;;;;;;5056836;28;1059;-84
2021/07/11 18:23:20;;;;;;;;;;;;;;;;;;5015184;28;1045;-85
2021/07/11 18:25:47;;;;;;;;;;;;;;;;;;4999598;28;1176;-85
2021/07/11 18:28:13;;;;;;;;;;;;;;;;;;4999437;28;1307;-85
2021/07/11 18:30:39;;;;;;;;;;;;;;;;;;4999413;28;1914;-85
2021/07/11 18:33:07;;;;;;;;;;;;;;;;;;4999438;28;1379;-85
2021/07/11 18:35:33;;;;;;;;;;;;;;;;;;4999227;28;1243;-83
2021/07/11 18:43:36;;;;;;;;;;;;;;;;;;4950294;29;887;-85
2021/07/11 18:46:03;;;;;;;;;;;;;;;;;;4937540;29;1276;-84
2021/07/11 18:51:32;;;;;;;;;;;;;;;;;;4938032;29;989;-84
2021/07/11 18:53:57;;;;;;;;;;;;;;;;;;4921968;29;1181;-84
2021/07/11 18:56:32;;;;;;;;;;;;;;;;;;4921851;29;1186;-84
2021/07/11 18:58:57;;;;;;;;;;;;;;;;;;4921671;29;1221;-83
2021/07/11 19:01:23;;;;;;;;;;;;;;;;;;4955931;29;949;-83
2021/07/11 19:03:51;;;;;;;;;;;;;;;;;;4956658;29;1219;-84
2021/07/11 19:06:17;;;;;;;;;;;;;;;;;;4956562;29;1207;-83
2021/07/11 19:08:43;;;;;;;;;;;;;;;;;;4956370;28;1942;-84
2021/07/11 19:11:08;;;;;;;;;;;;;;;;;;4955839;28;1186;-84
2021/07/11 19:13:33;;;;;;;;;;;;;;;;;;4953915;28;1209;-85
2021/07/11 19:15:58;;;;;;;;;;;;;;;;;;4954913;28;1173;-84
2021/07/11 19:18:25;;;;;;;;;;;;;;;;;;4997367;28;1236;-84
2021/07/11 19:20:56;;;;;;;;;;;;;;;;;;5011107;28;1256;-84
2021/07/11 19:26:01;;;;;;;;;;;;;;;;;;5036900;28;897;-86
2021/07/11 19:28:32;;;;;;;;;;;;;;;;;;5035494;28;1180;-86
2021/07/11 19:30:59;;;;;;;;;;;;;;;;;;5035696;28;902;-86
2021/07/11 19:33:34;;;;;;;;;;;;;;;;;;5034827;28;1269;-84
2021/07/11 19:35:59;;;;;;;;;;;;;;;;;;5035181;28;1210;-84
2021/07/11 19:38:34;;;;;;;;;;;;;;;;;;5035115;28;1254;-86
2021/07/11 19:41:13;;;;;;;;;;;;;;;;;;5035085;28;1301;-85
2021/07/11 19:43:44;;;;;;;;;;;;;;;;;;5035106;28;1331;-85
2021/07/11 19:46:28;;;;;;;;;;;;;;;;;;5034300;28;1186;-84
2021/07/11 19:49:00;;;;;;;;;;;;;;;;;;5034297;28;1878;-84
2021/07/11 19:51:27;;;;;;;;;;;;;;;;;;5036258;28;814;-86
2021/07/11 19:54:04;;;;;;;;;;;;;;;;;;5036196;28;921;-85
2021/07/11 19:56:29;;;;;;;;;;;;;;;;;;5034953;28;1132;-85
2021/07/11 19:58:55;;;;;;;;;;;;;;;;;;5036095;28;910;-85
2021/07/11 20:01:34;;;;;;;;;;;;;;;;;;5034567;28;1388;-85
2021/07/11 20:04:14;;;;;;;;;;;;;;;;;;5035001;28;1200;-84
2021/07/11 20:06:42;;;;;;;;;;;;;;;;;;5034924;28;1229;-85
2021/07/11 20:09:09;;;;;;;;;;;;;;;;;;5034631;28;1882;-85
2021/07/11 20:11:41;;;;;;;;;;;;;;;;;;5034585;28;1415;-84
2021/07/11 20:14:09;;;;;;;;;;;;;;;;;;5038702;28;1230;-85
2021/07/11 20:16:34;;;;;;;;;;;;;;;;;;5034607;28;1378;-84
2021/07/11 20:21:51;;;;;;;;;;;;;;;;;;5035611;28;629;-84
2021/07/11 20:24:28;;;;;;;;;;;;;;;;;;5035804;28;904;-84
2021/07/11 20:26:59;;;;;;;;;;;;;;;;;;5038334;28;1423;-85
2021/07/11 20:29:26;;;;;;;;;;;;;;;;;;5038532;28;1973;-84
2021/07/11 20:34:41;;;;;;;;;;;;;;;;;;5039060;28;1038;-84
2021/07/11 20:37:13;;;;;;;;;;;;;;;;;;5037738;28;1327;-84
2021/07/11 20:39:47;;;;;;;;;;;;;;;;;;5038461;28;1179;-85
2021/07/11 20:42:13;;;;;;;;;;;;;;;;;;5038550;28;1303;-85
2021/07/11 20:44:40;;;;;;;;;;;;;;;;;;5038281;28;1260;-84
2021/07/11 20:49:57;;;;;;;;;;;;;;;;;;4998055;28;1879;-84
2021/07/11 20:52:23;;;;;;;;;;;;;;;;;;4997999;28;1303;-84
2021/07/11 20:54:48;;;;;;;;;;;;;;;;;;4997976;28;1001;-84
2021/07/11 20:57:17;;;;;;;;;;;;;;;;;;4997897;28;973;-85
2021/07/11 20:59:43;;;;;;;;;;;;;;;;;;4997898;28;1296;-84
2021/07/11 21:02:19;;;;;;;;;;;;;;;;;;4997675;28;1267;-84
2021/07/11 21:04:46;;;;;;;;;;;;;;;;;;4997709;28;1192;-83
2021/07/11 21:10:17;;;;;;;;;;;;;;;;;;4997746;28;1930;-84
2021/07/11 21:12:54;;;;;;;;;;;;;;;;;;4997614;28;1197;-84
2021/07/11 21:15:19;;;;;;;;;;;;;;;;;;4996614;28;1120;-84
2021/07/11 21:17:45;;;;;;;;;;;;;;;;;;4997754;28;1397;-84
2021/07/11 21:20:11;;;;;;;;;;;;;;;;;;4997290;28;1168;-84
2021/07/11 21:22:38;;;;;;;;;;;;;;;;;;4997146;28;1160;-83
2021/07/11 21:25:12;;;;;;;;;;;;;;;;;;4997525;28;1300;-84
2021/07/11 21:27:48;;;;;;;;;;;;;;;;;;5016037;28;1227;-84
2021/07/11 21:30:14;;;;;;;;;;;;;;;;;;5020166;28;1898;-84
2021/07/11 21:32:39;;;;;;;;;;;;;;;;;;5020054;28;1306;-84
2021/07/11 21:35:16;;;;;;;;;;;;;;;;;;5020043;28;1196;-85
2021/07/11 21:37:43;;;;;;;;;;;;;;;;;;5019345;28;1162;-83
2021/07/11 21:40:18;;;;;;;;;;;;;;;;;;5019992;28;1191;-85
2021/07/11 21:42:44;;;;;;;;;;;;;;;;;;5020070;28;1420;-84
2021/07/11 21:45:26;;;;;;;;;;;;;;;;;;5019981;28;1238;-84
2021/07/11 21:50:21;;;;;;;;;;;;;;;;;;5058651;28;1882;-84
2021/07/11 21:52:59;;;;;;;;;;;;;;;;;;5056949;28;1190;-85
2021/07/11 21:55:26;;;;;;;;;;;;;;;;;;5056968;28;1219;-84
2021/07/11 21:58:01;;;;;;;;;;;;;;;;;;5056935;28;1172;-84
2021/07/11 22:03:10;;;;;;;;;;;;;;;;;;5057998;28;712;-84
2021/07/11 22:05:37;;;;;;;;;;;;;;;;;;5056803;28;1251;-84
2021/07/11 22:08:14;;;;;;;;;;;;;;;;;;5056647;28;1167;-84
2021/07/11 22:10:50;;;;;;;;;;;;;;;;;;5057943;28;1945;-85
2021/07/11 22:13:15;;;;;;;;;;;;;;;;;;5056682;28;1185;-84
2021/07/11 22:15:49;;;;;;;;;;;;;;;;;;5056638;28;1038;-84
2021/07/11 22:18:14;;;;;;;;;;;;;;;;;;5036445;28;1327;-84
2021/07/11 22:20:39;;;;;;;;;;;;;;;;;;5036510;28;1334;-84
2021/07/11 22:23:17;;;;;;;;;;;;;;;;;;5036409;28;1334;-84
2021/07/11 22:25:43;;;;;;;;;;;;;;;;;;5037148;28;894;-84
2021/07/11 22:28:18;;;;;;;;;;;;;;;;;;5035596;28;1045;-85
2021/07/11 22:33:49;;;;;;;;;;;;;;;;;;5015706;28;932;-84
2021/07/11 22:36:16;;;;;;;;;;;;;;;;;;5015678;28;811;-84
2021/07/11 22:38:42;;;;;;;;;;;;;;;;;;5015586;28;1399;-84
2021/07/11 22:41:09;;;;;;;;;;;;;;;;;;5015681;28;1288;-85
2021/07/11 22:43:35;;;;;;;;;;;;;;;;;;5015680;28;1157;-84
2021/07/11 22:46:01;;;;;;;;;;;;;;;;;;5015667;28;898;-85
2021/07/11 22:48:27;;;;;;;;;;;;;;;;;;5014649;28;1291;-84
2021/07/11 22:51:03;;;;;;;;;;;;;;;;;;5015022;28;1923;-83
2021/07/11 22:53:29;;;;;;;;;;;;;;;;;;5015244;28;1307;-83